createdAt,value
2023-03-18T00:01:22.772Z,91
2023-03-18T00:02:29.841Z,91
2023-03-18T00:03:36.610Z,92
2023-03-18T00:04:43.563Z,91
2023-03-18T00:05:50.750Z,92
2023-03-18T00:06:57.848Z,92
2023-03-18T00:08:04.891Z,92
2023-03-18T00:12:32.957Z,96
2023-03-18T00:13:39.907Z,92
2023-03-18T00:14:46.479Z,97
2023-03-18T00:15:53.578Z,93
2023-03-18T00:17:00.746Z,93
2023-03-18T00:18:07.735Z,93
2023-03-18T00:19:14.979Z,93
2023-03-18T00:20:21.650Z,93
2023-03-18T00:21:27.947Z,93
2023-03-18T00:21:28.587Z,93
2023-03-18T00:22:35.554Z,93
2023-03-18T00:23:42.846Z,93
2023-03-18T00:24:49.920Z,93
2023-03-18T00:25:56.504Z,93
2023-03-18T00:27:03.654Z,93
2023-03-18T00:28:10.729Z,93
2023-03-18T00:29:17.802Z,93
2023-03-18T00:30:24.917Z,93
2023-03-18T00:31:31.475Z,93
2023-03-18T00:32:38.612Z,93
2023-03-18T00:33:45.784Z,94
2023-03-18T00:34:53.218Z,93
2023-03-18T00:35:59.925Z,94
2023-03-18T00:37:07.423Z,93
2023-03-18T00:38:13.636Z,93
2023-03-18T00:39:20.674Z,93
2023-03-18T00:40:27.880Z,94
2023-03-18T00:41:34.913Z,94
2023-03-18T00:42:41.460Z,94
2023-03-18T00:43:48.581Z,94
2023-03-18T00:44:55.740Z,94
2023-03-18T00:46:03.035Z,93
2023-03-18T00:47:09.940Z,94
2023-03-18T00:48:17.154Z,93
2023-03-18T00:49:23.654Z,94
2023-03-18T00:50:31.030Z,94
2023-03-18T00:51:37.852Z,94
2023-03-18T00:52:44.929Z,94
2023-03-18T00:53:51.505Z,94
2023-03-18T00:54:58.562Z,94
2023-03-18T00:56:05.763Z,94
2023-03-18T00:57:12.828Z,94
2023-03-18T00:58:19.906Z,94
2023-03-18T00:59:26.414Z,94
2023-03-18T01:00:33.938Z,94
2023-03-18T01:01:40.703Z,94
2023-03-18T01:02:47.243Z,94
2023-03-18T01:03:54.470Z,94
2023-03-18T01:05:01.544Z,94
2023-03-18T01:06:08.566Z,94
2023-03-18T01:07:15.659Z,94
2023-03-18T01:08:22.769Z,94
2023-03-18T01:09:29.426Z,94
2023-03-18T01:10:36.780Z,94
2023-03-18T01:11:44.023Z,94
2023-03-18T01:12:50.802Z,94
2023-03-18T01:13:57.821Z,94
2023-03-18T01:15:04.357Z,94
2023-03-18T01:16:11.649Z,94
2023-03-18T01:17:18.526Z,94
2023-03-18T01:18:25.838Z,94
2023-03-18T01:19:32.860Z,94
2023-03-18T01:20:39.337Z,94
2023-03-18T01:21:46.469Z,94
2023-03-18T01:22:53.820Z,94
2023-03-18T01:24:00.711Z,94
2023-03-18T01:25:07.804Z,94
2023-03-18T01:26:14.464Z,94
2023-03-18T01:27:21.597Z,94
2023-03-18T01:29:35.944Z,94
2023-03-18T01:30:42.910Z,93
2023-03-18T01:31:49.380Z,93
2023-03-18T01:32:56.585Z,94
2023-03-18T01:34:03.689Z,94
2023-03-18T01:35:10.658Z,94
2023-03-18T01:36:17.865Z,93
2023-03-18T01:37:24.566Z,93
2023-03-18T01:38:31.777Z,93
2023-03-18T01:39:38.653Z,93
2023-03-18T01:40:45.889Z,93
2023-03-18T01:41:52.845Z,93
2023-03-18T01:42:59.513Z,93
2023-03-18T01:45:13.602Z,93
2023-03-18T01:46:20.816Z,93
2023-03-18T01:47:27.777Z,93
2023-03-18T01:48:34.569Z,93
2023-03-18T01:49:41.466Z,93
2023-03-18T01:50:48.580Z,93
2023-03-18T01:51:55.707Z,93
2023-03-18T01:53:02.885Z,93
2023-03-18T01:54:09.429Z,93
2023-03-18T01:55:16.591Z,93
2023-03-18T01:56:23.678Z,93
2023-03-18T01:57:30.771Z,93
2023-03-18T01:58:38.052Z,93
2023-03-18T01:59:44.529Z,93
2023-03-18T02:00:51.644Z,93
2023-03-18T02:01:58.702Z,93
2023-03-18T02:03:05.721Z,93
2023-03-18T02:04:13.069Z,93
2023-03-18T02:05:20.533Z,93
2023-03-18T02:06:26.721Z,93
2023-03-18T02:07:33.735Z,93
2023-03-18T02:08:40.844Z,93
2023-03-18T02:09:47.820Z,93
2023-03-18T02:10:54.533Z,93
2023-03-18T02:12:01.738Z,93
2023-03-18T02:13:08.789Z,93
2023-03-18T02:14:15.852Z,93
2023-03-18T02:15:23.017Z,93
2023-03-18T02:16:29.489Z,93
2023-03-18T02:17:36.676Z,93
2023-03-18T02:18:43.751Z,93
2023-03-18T02:19:50.714Z,93
2023-03-18T02:20:57.916Z,93
2023-03-18T02:22:04.432Z,94
2023-03-18T02:23:11.847Z,94
2023-03-18T02:24:18.669Z,93
2023-03-18T02:25:25.917Z,94
2023-03-18T02:26:32.863Z,94
2023-03-18T02:27:39.510Z,94
2023-03-18T02:28:46.669Z,94
2023-03-18T02:29:53.657Z,94
2023-03-18T02:31:02.043Z,94
2023-03-18T02:32:07.418Z,94
2023-03-18T02:33:14.628Z,94
2023-03-18T02:34:21.717Z,94
2023-03-18T02:35:28.700Z,94
2023-03-18T02:36:35.983Z,94
2023-03-18T02:37:42.484Z,94
2023-03-18T02:38:49.749Z,94
2023-03-18T02:39:56.662Z,94
2023-03-18T02:41:03.812Z,94
2023-03-18T02:42:10.748Z,94
2023-03-18T02:43:17.441Z,94
2023-03-18T02:44:24.464Z,95
2023-03-18T02:45:31.704Z,94
2023-03-18T02:46:38.772Z,94
2023-03-18T02:47:45.792Z,95
2023-03-18T02:48:52.534Z,95
2023-03-18T02:49:59.443Z,95
2023-03-18T02:51:06.663Z,94
2023-03-18T02:52:13.831Z,95
2023-03-18T02:53:20.927Z,95
2023-03-18T02:54:27.509Z,95
2023-03-18T02:55:35.167Z,95
2023-03-18T02:57:48.926Z,95
2023-03-18T02:58:55.933Z,95
2023-03-18T03:00:02.674Z,95
2023-03-18T03:01:09.648Z,95
2023-03-18T03:02:16.777Z,95
2023-03-18T03:03:24.274Z,95
2023-03-18T03:04:30.983Z,95
2023-03-18T03:05:37.494Z,95
2023-03-18T03:06:43.980Z,96
2023-03-18T03:06:44.560Z,96
2023-03-18T03:07:51.614Z,95
2023-03-18T03:08:58.868Z,96
2023-03-18T03:10:05.941Z,96
2023-03-18T03:11:12.411Z,95
2023-03-18T03:12:19.571Z,96
2023-03-18T03:13:26.821Z,95
2023-03-18T03:14:33.709Z,95
2023-03-18T03:15:40.953Z,95
2023-03-18T03:16:47.525Z,96
2023-03-18T03:17:54.711Z,95
2023-03-18T03:19:01.823Z,95
2023-03-18T03:20:09.026Z,95
2023-03-18T03:21:15.942Z,96
2023-03-18T03:22:22.569Z,96
2023-03-18T03:23:29.560Z,96
2023-03-18T03:24:36.638Z,96
2023-03-18T03:25:43.935Z,96
2023-03-18T03:26:51.022Z,96
2023-03-18T03:27:57.404Z,96
2023-03-18T03:29:04.680Z,96
2023-03-18T03:30:11.807Z,96
2023-03-18T03:31:18.903Z,96
2023-03-18T03:32:25.867Z,96
2023-03-18T03:33:33.170Z,97
2023-03-18T03:34:39.524Z,97
2023-03-18T03:35:46.818Z,96
2023-03-18T03:36:53.829Z,96
2023-03-18T03:38:00.832Z,97
2023-03-18T03:39:07.575Z,97
2023-03-18T03:40:14.675Z,97
2023-03-18T03:41:21.639Z,96
2023-03-18T03:42:28.739Z,97
2023-03-18T03:43:35.931Z,97
2023-03-18T03:44:42.427Z,97
2023-03-18T03:45:49.675Z,96
2023-03-18T03:46:56.687Z,96
2023-03-18T03:48:03.591Z,97
2023-03-18T03:49:10.937Z,97
2023-03-18T03:50:17.673Z,97
2023-03-18T03:51:24.995Z,97
2023-03-18T03:52:31.766Z,97
2023-03-18T03:53:38.852Z,97
2023-03-18T03:54:45.969Z,97
2023-03-18T03:55:52.562Z,97
2023-03-18T03:56:59.623Z,97
2023-03-18T03:58:06.755Z,96
2023-03-18T03:59:13.929Z,97
2023-03-18T04:00:20.447Z,97
2023-03-18T04:01:27.678Z,97
2023-03-18T04:02:34.701Z,97
2023-03-18T04:03:41.743Z,97
2023-03-18T04:04:48.757Z,97
2023-03-18T04:05:55.505Z,97
2023-03-18T04:07:02.594Z,97
2023-03-18T04:08:09.669Z,97
2023-03-18T04:09:16.803Z,97
2023-03-18T04:10:23.806Z,97
2023-03-18T04:11:30.362Z,97
2023-03-18T04:12:37.461Z,97
2023-03-18T04:13:44.698Z,97
2023-03-18T04:14:51.966Z,97
2023-03-18T04:15:58.943Z,97
2023-03-18T04:17:05.391Z,97
2023-03-18T04:18:12.674Z,98
2023-03-18T04:19:19.727Z,98
2023-03-18T04:20:26.838Z,98
2023-03-18T04:21:33.897Z,97
2023-03-18T04:22:40.498Z,97
2023-03-18T04:23:47.565Z,97
2023-03-18T04:26:01.830Z,98
2023-03-18T04:27:08.935Z,97
2023-03-18T04:28:15.753Z,97
2023-03-18T04:29:22.652Z,97
2023-03-18T04:30:29.764Z,97
2023-03-18T04:31:36.762Z,98
2023-03-18T04:32:43.989Z,97
2023-03-18T04:33:50.422Z,97
2023-03-18T04:34:57.642Z,98
2023-03-18T04:36:04.857Z,97
2023-03-18T04:37:11.754Z,97
2023-03-18T04:38:18.954Z,98
2023-03-18T04:39:25.432Z,97
2023-03-18T04:40:32.903Z,97
2023-03-18T04:41:39.706Z,97
2023-03-18T04:42:46.813Z,98
2023-03-18T04:43:54.086Z,97
2023-03-18T04:45:00.609Z,97
2023-03-18T04:46:07.652Z,97
2023-03-18T04:47:14.660Z,97
2023-03-18T04:48:22.015Z,97
2023-03-18T04:49:28.902Z,97
2023-03-18T04:50:35.485Z,97
2023-03-18T04:51:42.518Z,97
2023-03-18T04:52:49.702Z,97
2023-03-18T04:53:56.888Z,97
2023-03-18T04:55:03.951Z,97
2023-03-18T04:56:10.603Z,97
2023-03-18T04:57:17.536Z,97
2023-03-18T04:58:24.812Z,97
2023-03-18T04:59:31.878Z,97
2023-03-18T05:00:38.995Z,97
2023-03-18T05:01:45.945Z,97
2023-03-18T05:02:53.294Z,97
2023-03-18T05:03:59.904Z,97
2023-03-18T05:05:06.961Z,97
2023-03-18T05:06:13.869Z,96
2023-03-18T05:07:20.506Z,97
2023-03-18T05:08:27.641Z,96
2023-03-18T05:09:34.764Z,96
2023-03-18T05:10:41.861Z,97
2023-03-18T05:11:49.013Z,97
2023-03-18T05:12:55.772Z,97
2023-03-18T05:14:02.710Z,96
2023-03-18T05:15:11.925Z,97
2023-03-18T05:16:16.893Z,96
2023-03-18T05:17:23.451Z,96
2023-03-18T05:18:30.504Z,96
2023-03-18T05:19:37.563Z,96
2023-03-18T05:20:44.760Z,96
2023-03-18T05:21:51.780Z,96
2023-03-18T05:22:58.494Z,96
2023-03-18T05:24:05.613Z,96
2023-03-18T05:25:12.592Z,96
2023-03-18T05:26:19.715Z,97
2023-03-18T05:27:26.836Z,96
2023-03-18T05:28:33.465Z,96
2023-03-18T05:29:40.515Z,96
2023-03-18T05:30:47.632Z,96
2023-03-18T05:31:54.899Z,96
2023-03-18T05:33:01.974Z,96
2023-03-18T05:34:08.437Z,97
2023-03-18T05:35:15.965Z,96
2023-03-18T05:36:22.751Z,96
2023-03-18T05:37:29.685Z,96
2023-03-18T05:38:36.845Z,96
2023-03-18T05:39:44.930Z,96
2023-03-18T05:40:50.646Z,96
2023-03-18T05:41:57.695Z,96
2023-03-18T05:43:04.719Z,96
2023-03-18T05:44:11.965Z,96
2023-03-18T05:45:18.365Z,96
2023-03-18T05:46:25.668Z,96
2023-03-18T05:47:32.691Z,95
2023-03-18T05:48:39.817Z,96
2023-03-18T05:49:47.006Z,96
2023-03-18T05:50:53.413Z,96
2023-03-18T05:52:00.486Z,95
2023-03-18T05:54:14.989Z,95
2023-03-18T05:55:21.917Z,96
2023-03-18T05:56:28.556Z,96
2023-03-18T05:57:35.686Z,95
2023-03-18T05:58:42.685Z,95
2023-03-18T05:59:49.838Z,95
2023-03-18T06:00:56.834Z,96
2023-03-18T06:02:03.663Z,95
2023-03-18T06:03:10.666Z,95
2023-03-18T06:04:18.294Z,95
2023-03-18T06:05:24.812Z,95
2023-03-18T06:06:31.873Z,95
2023-03-18T06:07:39.015Z,95
2023-03-18T06:08:45.651Z,95
2023-03-18T06:09:52.653Z,96
2023-03-18T06:11:01.904Z,95
2023-03-18T06:12:06.916Z,96
2023-03-18T06:13:13.522Z,96
2023-03-18T06:14:20.660Z,95
2023-03-18T06:15:27.717Z,96
2023-03-18T06:16:34.931Z,95
2023-03-18T06:17:42.011Z,95
2023-03-18T06:18:48.415Z,96
2023-03-18T06:19:55.637Z,96
2023-03-18T06:21:02.667Z,95
2023-03-18T06:22:09.973Z,96
2023-03-18T06:23:17.249Z,96
2023-03-18T06:24:23.526Z,96
2023-03-18T06:25:30.959Z,96
2023-03-18T06:26:37.637Z,96
2023-03-18T06:27:44.894Z,97
2023-03-18T06:28:53.928Z,96
2023-03-18T06:29:59.056Z,97
2023-03-18T06:31:05.823Z,96
2023-03-18T06:32:12.917Z,97
2023-03-18T06:33:19.802Z,97
2023-03-18T06:33:19.866Z,97
2023-03-18T06:34:26.963Z,96
2023-03-18T06:35:33.881Z,96
2023-03-18T06:36:40.574Z,97
2023-03-18T06:37:47.662Z,97
2023-03-18T06:38:54.916Z,97
2023-03-18T06:40:02.001Z,97
2023-03-18T06:41:08.593Z,97
2023-03-18T06:42:15.762Z,97
2023-03-18T06:43:22.763Z,97
2023-03-18T06:44:29.765Z,97
2023-03-18T06:45:36.966Z,97
2023-03-18T06:46:44.045Z,97
2023-03-18T06:47:50.579Z,97
2023-03-18T06:48:57.799Z,97
2023-03-18T06:50:04.908Z,97
2023-03-18T06:51:12.018Z,97
2023-03-18T06:52:18.570Z,97
2023-03-18T06:53:25.726Z,97
2023-03-18T06:54:32.832Z,97
2023-03-18T06:55:39.796Z,97
2023-03-18T06:56:47.077Z,97
2023-03-18T06:57:53.613Z,97
2023-03-18T06:59:00.780Z,97
2023-03-18T07:00:07.695Z,97
2023-03-18T07:01:15.093Z,97
2023-03-18T07:02:22.331Z,97
2023-03-18T07:03:28.562Z,97
2023-03-18T07:04:35.741Z,98
2023-03-18T07:05:42.857Z,98
2023-03-18T07:06:49.802Z,97
2023-03-18T07:07:56.672Z,97
2023-03-18T07:09:03.792Z,97
2023-03-18T07:10:11.173Z,97
2023-03-18T07:11:17.696Z,97
2023-03-18T07:12:25.101Z,97
2023-03-18T07:13:32.870Z,98
2023-03-18T07:14:37.981Z,97
2023-03-18T07:14:38.505Z,97
2023-03-18T07:15:45.828Z,98
2023-03-18T07:16:52.847Z,97
2023-03-18T07:18:00.095Z,98
2023-03-18T07:19:07.649Z,98
2023-03-18T07:20:13.713Z,98
2023-03-18T07:22:27.713Z,97
2023-03-18T07:23:35.214Z,98
2023-03-18T07:24:41.739Z,98
2023-03-18T07:25:48.782Z,98
2023-03-18T07:26:55.780Z,98
2023-03-18T07:28:03.152Z,98
2023-03-18T07:29:10.571Z,98
2023-03-18T07:30:16.594Z,98
2023-03-18T07:31:23.749Z,98
2023-03-18T07:32:30.772Z,98
2023-03-18T07:33:37.808Z,98
2023-03-18T07:34:44.961Z,98
2023-03-18T07:35:51.641Z,98
2023-03-18T07:36:58.794Z,98
2023-03-18T07:38:05.734Z,98
2023-03-18T07:39:12.731Z,98
2023-03-18T07:40:19.849Z,98
2023-03-18T07:41:26.815Z,98
2023-03-18T07:42:33.585Z,98
2023-03-18T07:43:40.710Z,98
2023-03-18T07:44:47.849Z,98
2023-03-18T07:45:54.965Z,98
2023-03-18T07:47:01.517Z,98
2023-03-18T07:48:08.645Z,98
2023-03-18T07:49:15.768Z,98
2023-03-18T07:50:22.859Z,98
2023-03-18T07:51:29.950Z,98
2023-03-18T07:52:36.666Z,98
2023-03-18T07:53:43.632Z,98
2023-03-18T07:54:50.768Z,98
2023-03-18T07:55:57.772Z,98
2023-03-18T07:57:04.924Z,98
2023-03-18T07:58:12.255Z,98
2023-03-18T07:59:18.823Z,98
2023-03-18T08:00:25.786Z,98
2023-03-18T08:01:32.946Z,98
2023-03-18T08:02:40.377Z,98
2023-03-18T08:03:46.808Z,98
2023-03-18T08:04:53.588Z,98
2023-03-18T08:06:01.126Z,98
2023-03-18T08:07:07.877Z,98
2023-03-18T08:08:14.987Z,98
2023-03-18T08:09:21.620Z,99
2023-03-18T08:10:28.621Z,98
2023-03-18T08:11:35.722Z,99
2023-03-18T08:12:52.614Z,99
2023-03-18T08:13:49.480Z,99
2023-03-18T08:14:56.610Z,99
2023-03-18T08:16:03.690Z,99
2023-03-18T08:17:10.912Z,99
2023-03-18T08:18:17.795Z,99
2023-03-18T08:19:24.982Z,99
2023-03-18T08:20:31.527Z,99
2023-03-18T08:21:38.582Z,99
2023-03-18T08:22:45.786Z,99
2023-03-18T08:23:53.091Z,99
2023-03-18T08:24:59.916Z,99
2023-03-18T08:26:06.585Z,99
2023-03-18T08:27:13.721Z,98
2023-03-18T08:28:20.692Z,99
2023-03-18T08:29:27.956Z,99
2023-03-18T08:30:35.044Z,99
2023-03-18T08:31:41.561Z,98
2023-03-18T08:32:48.791Z,98
2023-03-18T08:33:55.741Z,99
2023-03-18T08:35:02.978Z,99
2023-03-18T08:36:10.081Z,99
2023-03-18T08:37:16.666Z,99
2023-03-18T08:38:23.728Z,99
2023-03-18T08:39:30.866Z,99
2023-03-18T08:40:37.951Z,99
2023-03-18T08:41:45.848Z,99
2023-03-18T08:42:51.637Z,99
2023-03-18T08:43:59.026Z,99
2023-03-18T08:45:05.841Z,99
2023-03-18T08:46:13.041Z,99
2023-03-18T08:47:20.099Z,99
2023-03-18T08:48:26.620Z,99
2023-03-18T08:50:40.907Z,99
2023-03-18T08:51:47.940Z,99
2023-03-18T08:52:55.096Z,99
2023-03-18T08:54:01.747Z,99
2023-03-18T08:55:08.932Z,99
2023-03-18T08:56:15.930Z,99
2023-03-18T08:57:22.941Z,99
2023-03-18T08:58:30.142Z,99
2023-03-18T08:59:36.633Z,99
2023-03-18T09:00:43.797Z,99
2023-03-18T09:01:50.868Z,99
2023-03-18T09:02:57.948Z,99
2023-03-18T09:04:04.524Z,99
2023-03-18T09:05:11.674Z,99
2023-03-18T09:06:18.669Z,99
2023-03-18T09:07:25.799Z,99
2023-03-18T09:08:33.000Z,99
2023-03-18T09:09:44.024Z,99
2023-03-18T09:10:46.704Z,99
2023-03-18T09:11:53.892Z,99
2023-03-18T09:13:00.766Z,99
2023-03-18T09:14:07.952Z,99
2023-03-18T09:15:14.618Z,99
2023-03-18T09:16:21.751Z,99
2023-03-18T09:17:45.302Z,99
2023-03-18T09:18:35.806Z,99
2023-03-18T09:19:42.923Z,99
2023-03-18T09:20:49.473Z,99
2023-03-18T09:21:56.600Z,99
2023-03-18T09:23:03.787Z,99
2023-03-18T09:24:10.858Z,99
2023-03-18T09:25:17.875Z,99
2023-03-18T09:26:25.141Z,99
2023-03-18T09:27:31.827Z,99
2023-03-18T09:28:38.742Z,99
2023-03-18T09:29:45.801Z,99
2023-03-18T09:30:53.016Z,99
2023-03-18T09:31:59.592Z,99
2023-03-18T09:33:06.773Z,99
2023-03-18T09:34:30.108Z,99
2023-03-18T09:35:20.936Z,99
2023-03-18T09:36:28.066Z,99
2023-03-18T09:37:34.592Z,99
2023-03-18T09:38:41.757Z,99
2023-03-18T09:39:48.695Z,99
2023-03-18T09:40:55.956Z,99
2023-03-18T09:42:03.147Z,99
2023-03-18T09:43:09.665Z,99
2023-03-18T09:44:16.772Z,99
2023-03-18T09:45:23.739Z,99
2023-03-18T09:46:31.057Z,99
2023-03-18T09:47:38.005Z,99
2023-03-18T09:48:44.745Z,99
2023-03-18T09:49:51.636Z,99
2023-03-18T09:51:01.834Z,99
2023-03-18T09:52:06.023Z,99
2023-03-18T09:53:12.962Z,99
2023-03-18T09:54:19.628Z,99
2023-03-18T09:55:26.765Z,99
2023-03-18T09:56:34.424Z,99
2023-03-18T09:57:42.758Z,99
2023-03-18T09:58:47.544Z,99
2023-03-18T09:59:54.558Z,99
2023-03-18T10:01:02.144Z,99
2023-03-18T10:02:08.822Z,99
2023-03-18T10:03:15.861Z,99
2023-03-18T10:04:23.143Z,99
2023-03-18T10:05:42.345Z,99
2023-03-18T10:06:36.793Z,99
2023-03-18T10:07:43.839Z,99
2023-03-18T10:08:50.913Z,99
2023-03-18T10:09:57.552Z,99
2023-03-18T10:11:04.739Z,99
2023-03-18T10:12:11.904Z,99
2023-03-18T10:13:18.921Z,99
2023-03-18T10:14:26.065Z,99
2023-03-18T10:15:38.349Z,99
2023-03-18T10:16:39.541Z,99
2023-03-18T10:18:53.925Z,99
2023-03-18T10:20:00.843Z,99
2023-03-18T10:21:07.980Z,99
2023-03-18T10:22:14.744Z,99
2023-03-18T10:23:21.676Z,99
2023-03-18T10:24:29.016Z,99
2023-03-18T10:25:36.009Z,99
2023-03-18T10:26:43.565Z,99
2023-03-18T10:27:49.562Z,99
2023-03-18T10:28:56.872Z,99
2023-03-18T10:30:04.200Z,99
2023-03-18T10:31:11.167Z,99
2023-03-18T10:32:17.458Z,99
2023-03-18T10:33:24.665Z,99
2023-03-18T10:34:32.015Z,99
2023-03-18T10:35:38.885Z,99
2023-03-18T10:36:45.909Z,99
2023-03-18T10:37:52.930Z,99
2023-03-18T10:38:59.565Z,99
2023-03-18T10:40:07.157Z,99
2023-03-18T10:41:14.003Z,99
2023-03-18T10:42:21.144Z,99
2023-03-18T10:43:27.464Z,99
2023-03-18T10:44:34.854Z,99
2023-03-18T10:45:41.982Z,99
2023-03-18T10:46:49.192Z,99
2023-03-18T10:47:55.884Z,99
2023-03-18T10:49:02.601Z,99
2023-03-18T10:50:09.916Z,99
2023-03-18T10:51:17.028Z,99
2023-03-18T10:52:24.152Z,99
2023-03-18T10:53:30.900Z,99
2023-03-18T10:54:38.686Z,99
2023-03-18T10:55:45.976Z,99
2023-03-18T10:56:52.021Z,99
2023-03-18T10:57:58.808Z,99
2023-03-18T10:59:06.215Z,99
2023-03-18T11:00:12.937Z,99
2023-03-18T11:01:21.794Z,99
2023-03-18T11:02:27.146Z,99
2023-03-18T11:03:33.850Z,99
2023-03-18T11:04:41.393Z,99
2023-03-18T11:05:47.814Z,99
2023-03-18T11:06:54.890Z,99
2023-03-18T11:08:02.069Z,99
2023-03-18T11:09:09.175Z,99
2023-03-18T11:10:16.054Z,99
2023-03-18T11:11:22.699Z,99
2023-03-18T11:12:29.874Z,99
2023-03-18T11:13:36.994Z,99
2023-03-18T11:14:43.846Z,99
2023-03-18T11:15:51.108Z,99
2023-03-18T11:16:57.683Z,99
2023-03-18T11:18:04.806Z,99
2023-03-18T11:19:12.020Z,99
2023-03-18T11:20:19.068Z,99
2023-03-18T11:21:25.964Z,99
2023-03-18T11:22:32.552Z,99
2023-03-18T11:23:39.875Z,99
2023-03-18T11:24:48.493Z,99
2023-03-18T11:25:54.041Z,99
2023-03-18T11:27:01.034Z,99
2023-03-18T11:28:07.856Z,99
2023-03-18T11:29:14.726Z,99
2023-03-18T11:30:40.608Z,99
2023-03-18T11:31:29.118Z,99
2023-03-18T11:32:35.850Z,99
2023-03-18T11:33:42.588Z,99
2023-03-18T11:34:49.694Z,99
2023-03-18T11:35:57.348Z,99
2023-03-18T11:37:04.130Z,99
2023-03-18T11:38:10.614Z,99
2023-03-18T11:39:17.648Z,99
2023-03-18T11:40:24.799Z,99
2023-03-18T11:41:31.784Z,99
2023-03-18T11:42:39.060Z,99
2023-03-18T11:43:45.624Z,99
2023-03-18T11:44:52.641Z,99
2023-03-18T11:47:06.928Z,99
2023-03-18T11:48:14.007Z,99
2023-03-18T11:49:20.495Z,99
2023-03-18T11:50:27.963Z,99
2023-03-18T11:51:34.706Z,99
2023-03-18T11:52:42.040Z,99
2023-03-18T11:53:49.945Z,99
2023-03-18T11:54:55.611Z,99
2023-03-18T11:56:27.263Z,99
2023-03-18T11:57:10.021Z,99
2023-03-18T11:58:16.918Z,99
2023-03-18T11:59:23.908Z,99
2023-03-18T12:00:30.558Z,99
2023-03-18T12:01:37.891Z,99
2023-03-18T12:02:44.766Z,99
2023-03-18T12:03:52.019Z,99
2023-03-18T12:04:58.897Z,99
2023-03-18T12:06:05.634Z,99
2023-03-18T12:07:12.763Z,99
2023-03-18T12:08:19.782Z,99
2023-03-18T12:10:34.476Z,99
2023-03-18T12:11:40.480Z,99
2023-03-18T12:12:47.595Z,99
2023-03-18T12:13:55.072Z,99
2023-03-18T12:15:01.991Z,99
2023-03-18T12:16:08.942Z,99
2023-03-18T12:17:15.692Z,99
2023-03-18T12:18:22.622Z,99
2023-03-18T12:19:29.718Z,99
2023-03-18T12:20:37.144Z,99
2023-03-18T12:21:43.752Z,99
2023-03-18T12:21:44.159Z,99
2023-03-18T12:22:52.586Z,99
2023-03-18T12:23:57.677Z,99
2023-03-18T12:25:04.739Z,99
2023-03-18T12:26:11.997Z,99
2023-03-18T12:27:19.225Z,99
2023-03-18T12:28:26.082Z,99
2023-03-18T12:29:32.834Z,99
2023-03-18T12:30:39.736Z,99
2023-03-18T12:31:46.952Z,99
2023-03-18T12:32:54.281Z,99
2023-03-18T12:34:00.719Z,99
2023-03-18T12:35:07.849Z,99
2023-03-18T12:36:14.754Z,99
2023-03-18T12:37:22.061Z,99
2023-03-18T12:38:29.166Z,99
2023-03-18T12:39:35.726Z,99
2023-03-18T12:40:42.673Z,99
2023-03-18T12:41:50.015Z,99
2023-03-18T12:42:56.868Z,99
2023-03-18T12:44:04.214Z,99
2023-03-18T12:45:10.819Z,99
2023-03-18T12:46:17.711Z,99
2023-03-18T12:47:24.955Z,99
2023-03-18T12:48:43.273Z,99
2023-03-18T12:49:38.966Z,99
2023-03-18T12:50:45.719Z,99
2023-03-18T12:51:52.913Z,99
2023-03-18T12:53:00.218Z,99
2023-03-18T12:54:07.596Z,99
2023-03-18T12:55:14.173Z,99
2023-03-18T12:56:20.676Z,99
2023-03-18T12:57:28.053Z,99
2023-03-18T12:58:34.959Z,99
2023-03-18T12:59:42.127Z,99
2023-03-18T13:00:48.894Z,99
2023-03-18T13:01:56.123Z,99
2023-03-18T13:03:02.302Z,99
2023-03-18T13:03:02.878Z,99
2023-03-18T13:04:10.148Z,99
2023-03-18T13:05:17.019Z,99
2023-03-18T13:06:23.518Z,99
2023-03-18T13:07:30.739Z,99
2023-03-18T13:08:37.667Z,99
2023-03-18T13:09:45.008Z,99
2023-03-18T13:10:52.064Z,99
2023-03-18T13:11:58.466Z,99
2023-03-18T13:13:05.887Z,99
2023-03-18T13:14:12.755Z,99
2023-03-18T13:15:20.037Z,99
2023-03-18T13:16:27.199Z,99
2023-03-18T13:17:33.506Z,99
2023-03-18T13:18:40.805Z,99
2023-03-18T13:19:47.847Z,99
2023-03-18T13:20:55.022Z,99
2023-03-18T13:22:02.116Z,99
2023-03-18T13:23:08.672Z,99
2023-03-18T13:24:15.875Z,99
2023-03-18T13:25:23.019Z,99
2023-03-18T13:26:30.130Z,99
2023-03-18T13:27:37.074Z,99
2023-03-18T13:28:43.791Z,99
2023-03-18T13:29:50.605Z,99
2023-03-18T13:30:57.969Z,99
2023-03-18T13:32:04.828Z,99
2023-03-18T13:33:12.011Z,99
2023-03-18T13:34:18.795Z,99
2023-03-18T13:35:26.014Z,99
2023-03-18T13:36:33.136Z,99
2023-03-18T13:37:40.007Z,99
2023-03-18T13:38:47.252Z,99
2023-03-18T13:39:53.533Z,99
2023-03-18T13:41:02.327Z,99
2023-03-18T13:42:07.902Z,99
2023-03-18T13:43:14.841Z,99
2023-03-18T13:44:23.443Z,99
2023-03-18T13:45:28.727Z,99
2023-03-18T13:46:35.709Z,99
2023-03-18T13:47:43.039Z,99
2023-03-18T13:48:50.053Z,99
2023-03-18T13:49:57.332Z,99
2023-03-18T13:51:04.343Z,99
2023-03-18T13:52:10.760Z,99
2023-03-18T13:53:17.999Z,99
2023-03-18T13:54:24.995Z,99
2023-03-18T13:55:32.669Z,99
2023-03-18T13:56:38.761Z,99
2023-03-18T13:57:46.014Z,99
2023-03-18T13:58:52.858Z,99
2023-03-18T13:59:59.999Z,99
2023-03-18T14:01:09.217Z,99
2023-03-18T14:02:13.710Z,99
2023-03-18T14:03:20.920Z,99
2023-03-18T14:04:28.042Z,99
2023-03-18T14:05:35.386Z,99
2023-03-18T14:06:42.271Z,99
2023-03-18T14:07:48.743Z,99
2023-03-18T14:08:56.179Z,99
2023-03-18T14:10:17.880Z,99
2023-03-18T14:11:09.857Z,99
2023-03-18T14:12:16.735Z,99
2023-03-18T14:13:23.866Z,99
2023-03-18T14:14:30.732Z,99
2023-03-18T14:15:38.124Z,99
2023-03-18T14:17:51.465Z,99
2023-03-18T14:18:58.559Z,99
2023-03-18T14:20:05.701Z,99
2023-03-18T14:21:12.961Z,99
2023-03-18T14:22:20.038Z,99
2023-03-18T14:23:26.642Z,99
2023-03-18T14:24:33.845Z,99
2023-03-18T14:25:40.680Z,99
2023-03-18T14:26:47.896Z,99
2023-03-18T14:27:55.089Z,99
2023-03-18T14:29:01.843Z,99
2023-03-18T14:30:08.980Z,99
2023-03-18T14:31:16.057Z,99
2023-03-18T14:32:23.156Z,99
2023-03-18T14:33:30.206Z,99
2023-03-18T14:34:36.554Z,99
2023-03-18T14:35:44.426Z,99
2023-03-18T14:36:50.925Z,99
2023-03-18T14:37:58.107Z,99
2023-03-18T14:39:05.274Z,99
2023-03-18T14:40:11.522Z,99
2023-03-18T14:41:18.594Z,99
2023-03-18T14:42:25.931Z,99
2023-03-18T14:43:32.867Z,99
2023-03-18T14:44:40.018Z,99
2023-03-18T14:45:46.512Z,99
2023-03-18T14:46:53.872Z,99
2023-03-18T14:48:00.691Z,99
2023-03-18T14:49:08.101Z,99
2023-03-18T14:50:15.142Z,99
2023-03-18T14:51:21.672Z,99
2023-03-18T14:52:28.880Z,99
2023-03-18T14:53:35.985Z,99
2023-03-18T14:54:43.177Z,99
2023-03-18T14:55:50.101Z,99
2023-03-18T14:56:56.588Z,99
2023-03-18T14:58:03.827Z,99
2023-03-18T14:59:11.063Z,99
2023-03-18T15:00:18.111Z,99
2023-03-18T15:01:24.998Z,99
2023-03-18T15:02:31.766Z,99
2023-03-18T15:03:38.985Z,99
2023-03-18T15:04:46.055Z,99
2023-03-18T15:05:53.072Z,99
2023-03-18T15:07:00.223Z,99
2023-03-18T15:08:06.552Z,99
2023-03-18T15:09:14.236Z,99
2023-03-18T15:10:21.002Z,99
2023-03-18T15:11:27.832Z,99
2023-03-18T15:12:34.973Z,99
2023-03-18T15:13:41.925Z,99
2023-03-18T15:14:48.833Z,99
2023-03-18T15:15:56.129Z,99
2023-03-18T15:17:02.868Z,99
2023-03-18T15:18:10.179Z,99
2023-03-18T15:19:17.557Z,99
2023-03-18T15:21:31.050Z,99
2023-03-18T15:22:37.994Z,99
2023-03-18T15:23:45.017Z,99
2023-03-18T15:24:51.857Z,99
2023-03-18T15:25:58.934Z,99
2023-03-18T15:27:05.967Z,99
2023-03-18T15:28:12.892Z,99
2023-03-18T15:29:20.130Z,99
2023-03-18T15:30:26.906Z,99
2023-03-18T15:31:33.961Z,99
2023-03-18T15:32:41.025Z,99
2023-03-18T15:33:48.067Z,99
2023-03-18T15:34:54.446Z,99
2023-03-18T15:36:01.832Z,99
2023-03-18T15:37:08.660Z,99
2023-03-18T15:38:15.815Z,99
2023-03-18T15:39:23.150Z,99
2023-03-18T15:40:30.080Z,99
2023-03-18T15:41:36.730Z,99
2023-03-18T15:42:43.888Z,99
2023-03-18T15:43:50.948Z,99
2023-03-18T15:44:58.170Z,99
2023-03-18T15:46:04.813Z,99
2023-03-18T15:47:11.842Z,99
2023-03-18T15:48:18.870Z,99
2023-03-18T15:49:26.445Z,99
2023-03-18T15:50:32.927Z,99
2023-03-18T15:51:39.480Z,99
2023-03-18T15:52:46.612Z,99
2023-03-18T15:53:53.840Z,99
2023-03-18T15:55:00.954Z,99
2023-03-18T15:56:07.991Z,99
2023-03-18T15:57:14.788Z,99
2023-03-18T15:58:21.873Z,99
2023-03-18T15:59:28.955Z,99
2023-03-18T16:00:35.975Z,99
2023-03-18T16:01:42.933Z,99
2023-03-18T16:02:49.839Z,99
2023-03-18T16:03:56.910Z,99
2023-03-18T16:05:03.915Z,99
2023-03-18T16:06:11.006Z,99